sensor_id;sensor_type;location;lat;lon;timestamp;pressure;altitude;pressure_sealevel;temperature;humidity
42633;BME280;28261;53.304;-6.284;2023-04-05T00:01:19;101310.75;;;10.21;99.51
42633;BME280;28261;53.304;-6.284;2023-04-05T00:03:24;101301.97;;;10.20;99.64
42633;BME280;28261;53.304;-6.284;2023-04-05T00:05:28;101307.25;;;10.20;99.67
42633;BME280;28261;53.304;-6.284;2023-04-05T00:07:34;101309.03;;;10.20;99.83
42633;BME280;28261;53.304;-6.284;2023-04-05T00:09:37;101295.78;;;10.20;99.79
42633;BME280;28261;53.304;-6.284;2023-04-05T00:11:41;101293.22;;;10.18;100.00
42633;BME280;28261;53.304;-6.284;2023-04-05T00:13:45;101285.38;;;10.16;100.00
42633;BME280;28261;53.304;-6.284;2023-04-05T00:15:48;101281.69;;;10.19;100.00
42633;BME280;28261;53.304;-6.284;2023-04-05T00:17:52;101281.59;;;10.21;100.00
42633;BME280;28261;53.304;-6.284;2023-04-05T00:19:56;101282.38;;;10.23;100.00
42633;BME280;28261;53.304;-6.284;2023-04-05T00:22:00;101264.59;;;10.25;100.00
42633;BME280;28261;53.304;-6.284;2023-04-05T00:24:06;101261.09;;;10.24;100.00
42633;BME280;28261;53.304;-6.284;2023-04-05T00:26:16;101264.59;;;10.25;100.00
42633;BME280;28261;53.304;-6.284;2023-04-05T00:28:26;101266.31;;;10.26;100.00
42633;BME280;28261;53.304;-6.284;2023-04-05T00:30:32;101256.53;;;10.26;100.00
42633;BME280;28261;53.304;-6.284;2023-04-05T00:32:36;101254.00;;;10.25;100.00
42633;BME280;28261;53.304;-6.284;2023-04-05T00:34:40;101254.09;;;10.23;100.00
42633;BME280;28261;53.304;-6.284;2023-04-05T00:36:43;101245.44;;;10.20;100.00
42633;BME280;28261;53.304;-6.284;2023-04-05T00:38:48;101243.06;;;10.15;100.00
42633;BME280;28261;53.304;-6.284;2023-04-05T00:40:54;101233.69;;;10.09;100.00
42633;BME280;28261;53.304;-6.284;2023-04-05T00:42:58;101234.00;;;10.03;100.00
42633;BME280;28261;53.304;-6.284;2023-04-05T00:45:02;101225.59;;;9.96;100.00
42633;BME280;28261;53.304;-6.284;2023-04-05T00:47:07;101219.78;;;9.90;100.00
42633;BME280;28261;53.304;-6.284;2023-04-05T00:49:11;101220.81;;;9.87;100.00
42633;BME280;28261;53.304;-6.284;2023-04-05T00:51:15;101222.75;;;9.83;100.00
42633;BME280;28261;53.304;-6.284;2023-04-05T00:53:22;101231.63;;;9.82;100.00
42633;BME280;28261;53.304;-6.284;2023-04-05T00:55:26;101221.91;;;9.83;100.00
42633;BME280;28261;53.304;-6.284;2023-04-05T00:57:32;101219.28;;;9.83;100.00
42633;BME280;28261;53.304;-6.284;2023-04-05T00:59:40;101220.09;;;9.83;100.00
42633;BME280;28261;53.304;-6.284;2023-04-05T01:01:44;101226.19;;;9.86;100.00
42633;BME280;28261;53.304;-6.284;2023-04-05T01:03:58;101219.09;;;9.86;100.00
42633;BME280;28261;53.304;-6.284;2023-04-05T01:06:15;101228.56;;;9.90;100.00
42633;BME280;28261;53.304;-6.284;2023-04-05T01:08:28;101226.69;;;9.92;100.00
42633;BME280;28261;53.304;-6.284;2023-04-05T01:10:43;101231.91;;;9.94;100.00
42633;BME280;28261;53.304;-6.284;2023-04-05T01:12:48;101216.78;;;9.96;100.00
42633;BME280;28261;53.304;-6.284;2023-04-05T01:14:54;101215.84;;;9.97;100.00
42633;BME280;28261;53.304;-6.284;2023-04-05T01:16:58;101218.31;;;10.00;100.00
42633;BME280;28261;53.304;-6.284;2023-04-05T01:19:02;101215.56;;;10.02;100.00
42633;BME280;28261;53.304;-6.284;2023-04-05T01:21:20;101203.09;;;10.04;100.00
42633;BME280;28261;53.304;-6.284;2023-04-05T01:23:37;101211.78;;;10.06;100.00
42633;BME280;28261;53.304;-6.284;2023-04-05T01:26:20;101203.75;;;10.07;100.00
42633;BME280;28261;53.304;-6.284;2023-04-05T01:28:58;101218.63;;;10.10;100.00
42633;BME280;28261;53.304;-6.284;2023-04-05T01:31:19;101204.53;;;10.09;100.00
42633;BME280;28261;53.304;-6.284;2023-04-05T01:33:33;101207.94;;;10.11;100.00
42633;BME280;28261;53.304;-6.284;2023-04-05T01:35:42;101212.31;;;10.12;100.00
42633;BME280;28261;53.304;-6.284;2023-04-05T01:37:50;101200.88;;;10.12;100.00
42633;BME280;28261;53.304;-6.284;2023-04-05T01:39:56;101199.94;;;10.13;100.00
42633;BME280;28261;53.304;-6.284;2023-04-05T01:42:01;101205.22;;;10.13;100.00
42633;BME280;28261;53.304;-6.284;2023-04-05T01:44:06;101203.41;;;10.13;100.00
42633;BME280;28261;53.304;-6.284;2023-04-05T01:46:10;101200.78;;;10.13;100.00
42633;BME280;28261;53.304;-6.284;2023-04-05T01:48:17;101204.25;;;10.14;100.00
42633;BME280;28261;53.304;-6.284;2023-04-05T01:50:20;101203.41;;;10.13;100.00
42633;BME280;28261;53.304;-6.284;2023-04-05T01:52:25;101203.41;;;10.13;100.00
42633;BME280;28261;53.304;-6.284;2023-04-05T01:54:28;101204.16;;;10.15;100.00
42633;BME280;28261;53.304;-6.284;2023-04-05T01:56:32;101201.53;;;10.15;100.00
42633;BME280;28261;53.304;-6.284;2023-04-05T01:58:37;101191.78;;;10.16;100.00
42633;BME280;28261;53.304;-6.284;2023-04-05T02:00:41;101193.50;;;10.17;100.00
42633;BME280;28261;53.304;-6.284;2023-04-05T02:02:45;101193.41;;;10.19;100.00
42633;BME280;28261;53.304;-6.284;2023-04-05T02:04:50;101182.81;;;10.19;100.00
42633;BME280;28261;53.304;-6.284;2023-04-05T02:06:55;101188.03;;;10.20;100.00
42633;BME280;28261;53.304;-6.284;2023-04-05T02:08:59;101178.28;;;10.21;100.00
42633;BME280;28261;53.304;-6.284;2023-04-05T02:11:03;101173.84;;;10.21;100.00
42633;BME280;28261;53.304;-6.284;2023-04-05T02:13:07;101166.75;;;10.22;100.00
42633;BME280;28261;53.304;-6.284;2023-04-05T02:15:11;101175.53;;;10.22;100.00
42633;BME280;28261;53.304;-6.284;2023-04-05T02:17:15;101174.69;;;10.22;100.00
42633;BME280;28261;53.304;-6.284;2023-04-05T02:19:20;101180.81;;;10.22;100.00
42633;BME280;28261;53.304;-6.284;2023-04-05T02:21:25;101175.53;;;10.22;100.00
42633;BME280;28261;53.304;-6.284;2023-04-05T02:23:30;101176.41;;;10.23;100.00
42633;BME280;28261;53.304;-6.284;2023-04-05T02:25:34;101178.28;;;10.21;100.00
42633;BME280;28261;53.304;-6.284;2023-04-05T02:27:38;101169.38;;;10.22;100.00
42633;BME280;28261;53.304;-6.284;2023-04-05T02:29:43;101169.47;;;10.20;100.00
42633;BME280;28261;53.304;-6.284;2023-04-05T02:31:49;101166.75;;;10.22;100.00
42633;BME280;28261;53.304;-6.284;2023-04-05T02:33:53;101162.38;;;10.21;100.00
42633;BME280;28261;53.304;-6.284;2023-04-05T02:35:59;101156.22;;;10.20;100.00
42633;BME280;28261;53.304;-6.284;2023-04-05T02:38:08;101154.53;;;10.19;100.00
42633;BME280;28261;53.304;-6.284;2023-04-05T02:40:13;101148.28;;;10.20;100.00
42633;BME280;28261;53.304;-6.284;2023-04-05T02:42:18;101150.84;;;10.22;100.00
42633;BME280;28261;53.304;-6.284;2023-04-05T02:44:24;101147.34;;;10.21;100.00
42633;BME280;28261;53.304;-6.284;2023-04-05T02:46:28;101139.31;;;10.23;100.00
42633;BME280;28261;53.304;-6.284;2023-04-05T02:48:33;101147.16;;;10.24;100.00
42633;BME280;28261;53.304;-6.284;2023-04-05T02:50:38;101141.03;;;10.24;100.00
42633;BME280;28261;53.304;-6.284;2023-04-05T02:52:43;101137.41;;;10.25;100.00
42633;BME280;28261;53.304;-6.284;2023-04-05T02:54:48;101141.03;;;10.24;100.00
42633;BME280;28261;53.304;-6.284;2023-04-05T02:56:57;101132.09;;;10.25;100.00
42633;BME280;28261;53.304;-6.284;2023-04-05T02:59:11;101136.47;;;10.26;100.00
42633;BME280;28261;53.304;-6.284;2023-04-05T03:01:18;101146.13;;;10.27;100.00
42633;BME280;28261;53.304;-6.284;2023-04-05T03:03:22;101140.84;;;10.27;100.00
42633;BME280;28261;53.304;-6.284;2023-04-05T03:05:28;101125.88;;;10.26;100.00
42633;BME280;28261;53.304;-6.284;2023-04-05T03:07:33;101132.97;;;10.25;100.00
42633;BME280;28261;53.304;-6.284;2023-04-05T03:09:40;101127.59;;;10.27;100.00
42633;BME280;28261;53.304;-6.284;2023-04-05T03:11:47;101120.47;;;10.27;100.00
42633;BME280;28261;53.304;-6.284;2023-04-05T03:13:52;101125.78;;;10.27;100.00
42633;BME280;28261;53.304;-6.284;2023-04-05T03:16:10;101118.75;;;10.26;100.00
42633;BME280;28261;53.304;-6.284;2023-04-05T03:18:16;101124.94;;;10.27;100.00
42633;BME280;28261;53.304;-6.284;2023-04-05T03:20:23;101111.78;;;10.25;100.00
42633;BME280;28261;53.304;-6.284;2023-04-05T03:22:31;101122.28;;;10.27;100.00
42633;BME280;28261;53.304;-6.284;2023-04-05T03:24:36;101111.78;;;10.25;100.00
42633;BME280;28261;53.304;-6.284;2023-04-05T03:26:44;101110.91;;;10.25;100.00
42633;BME280;28261;53.304;-6.284;2023-04-05T03:28:51;101109.03;;;10.27;100.00
42633;BME280;28261;53.304;-6.284;2023-04-05T03:31:01;101099.28;;;10.27;100.00
42633;BME280;28261;53.304;-6.284;2023-04-05T03:33:05;101101.09;;;10.27;100.00
42633;BME280;28261;53.304;-6.284;2023-04-05T03:35:16;101112.44;;;10.29;100.00
42633;BME280;28261;53.304;-6.284;2023-04-05T03:37:21;101103.53;;;10.30;100.00
42633;BME280;28261;53.304;-6.284;2023-04-05T03:39:34;101099.97;;;10.31;100.00
42633;BME280;28261;53.304;-6.284;2023-04-05T03:41:38;101095.50;;;10.31;100.00
42633;BME280;28261;53.304;-6.284;2023-04-05T03:43:43;101088.41;;;10.32;100.00
42633;BME280;28261;53.304;-6.284;2023-04-05T03:45:48;101097.22;;;10.32;100.00
42633;BME280;28261;53.304;-6.284;2023-04-05T03:47:51;101095.41;;;10.33;100.00
42633;BME280;28261;53.304;-6.284;2023-04-05T03:49:56;101098.91;;;10.33;100.00
42633;BME280;28261;53.304;-6.284;2023-04-05T03:52:00;101096.22;;;10.35;100.00
42633;BME280;28261;53.304;-6.284;2023-04-05T03:54:04;101104.91;;;10.37;100.00
42633;BME280;28261;53.304;-6.284;2023-04-05T03:56:10;101094.31;;;10.37;100.00
42633;BME280;28261;53.304;-6.284;2023-04-05T03:58:20;101101.31;;;10.38;100.00
42633;BME280;28261;53.304;-6.284;2023-04-05T04:00:24;101103.03;;;10.39;100.00
42633;BME280;28261;53.304;-6.284;2023-04-05T04:02:55;101094.13;;;10.40;100.00
42633;BME280;28261;53.304;-6.284;2023-04-05T04:05:00;101094.97;;;10.41;100.00
42633;BME280;28261;53.304;-6.284;2023-04-05T04:07:04;101095.81;;;10.41;100.00
42633;BME280;28261;53.304;-6.284;2023-04-05T04:09:08;101096.69;;;10.42;100.00
42633;BME280;28261;53.304;-6.284;2023-04-05T04:11:13;101090.53;;;10.41;100.00
42633;BME280;28261;53.304;-6.284;2023-04-05T04:13:16;101086.94;;;10.42;100.00
42633;BME280;28261;53.304;-6.284;2023-04-05T04:15:27;101092.22;;;10.42;100.00
42633;BME280;28261;53.304;-6.284;2023-04-05T04:17:42;101097.53;;;10.42;100.00
42633;BME280;28261;53.304;-6.284;2023-04-05T04:20:04;101096.69;;;10.42;100.00
42633;BME280;28261;53.304;-6.284;2023-04-05T04:22:27;101098.47;;;10.41;100.00
42633;BME280;28261;53.304;-6.284;2023-04-05T04:25:00;101094.97;;;10.41;100.00
42633;BME280;28261;53.304;-6.284;2023-04-05T04:27:19;101094.97;;;10.41;100.00
42633;BME280;28261;53.304;-6.284;2023-04-05T04:29:58;101098.47;;;10.41;100.00
42633;BME280;28261;53.304;-6.284;2023-04-05T04:32:35;101094.13;;;10.40;100.00
42633;BME280;28261;53.304;-6.284;2023-04-05T04:35:22;101087.13;;;10.39;100.00
42633;BME280;28261;53.304;-6.284;2023-04-05T04:37:32;101084.47;;;10.39;100.00
42633;BME280;28261;53.304;-6.284;2023-04-05T04:40:05;101090.72;;;10.38;100.00
42633;BME280;28261;53.304;-6.284;2023-04-05T04:42:44;101086.25;;;10.39;100.00
42633;BME280;28261;53.304;-6.284;2023-04-05T04:45:06;101088.06;;;10.38;100.00
42633;BME280;28261;53.304;-6.284;2023-04-05T04:47:20;101088.91;;;10.39;100.00
42633;BME280;28261;53.304;-6.284;2023-04-05T04:49:37;101085.41;;;10.38;100.00
42633;BME280;28261;53.304;-6.284;2023-04-05T04:51:42;101086.25;;;10.39;100.00
42633;BME280;28261;53.304;-6.284;2023-04-05T04:53:45;101087.13;;;10.39;100.00
42633;BME280;28261;53.304;-6.284;2023-04-05T04:55:49;101079.19;;;10.39;100.00
42633;BME280;28261;53.304;-6.284;2023-04-05T04:57:52;101072.06;;;10.40;100.00
42633;BME280;28261;53.304;-6.284;2023-04-05T04:59:56;101079.91;;;10.41;100.00
42633;BME280;28261;53.304;-6.284;2023-04-05T05:01:59;101079.81;;;10.43;100.00
42633;BME280;28261;53.304;-6.284;2023-04-05T05:04:02;101079.75;;;10.44;100.00
42633;BME280;28261;53.304;-6.284;2023-04-05T05:06:09;101075.28;;;10.45;100.00
42633;BME280;28261;53.304;-6.284;2023-04-05T05:08:15;101068.19;;;10.45;100.00
42633;BME280;28261;53.304;-6.284;2023-04-05T05:10:22;101073.38;;;10.47;100.00
42633;BME280;28261;53.304;-6.284;2023-04-05T05:12:26;101070.66;;;10.48;100.00
42633;BME280;28261;53.304;-6.284;2023-04-05T05:14:30;101062.63;;;10.50;100.00
42633;BME280;28261;53.304;-6.284;2023-04-05T05:16:34;101063.47;;;10.50;100.00
42633;BME280;28261;53.304;-6.284;2023-04-05T05:18:37;101057.22;;;10.52;100.00
42633;BME280;28261;53.304;-6.284;2023-04-05T05:20:42;101054.56;;;10.52;100.00
42633;BME280;28261;53.304;-6.284;2023-04-05T05:22:45;101063.25;;;10.54;100.00
42633;BME280;28261;53.304;-6.284;2023-04-05T05:24:50;101049.06;;;10.55;100.00
42633;BME280;28261;53.304;-6.284;2023-04-05T05:26:53;101046.41;;;10.55;100.00
42633;BME280;28261;53.304;-6.284;2023-04-05T05:28:59;101048.13;;;10.56;100.00
42633;BME280;28261;53.304;-6.284;2023-04-05T05:31:05;101049.84;;;10.57;100.00
42633;BME280;28261;53.304;-6.284;2023-04-05T05:33:09;101054.16;;;10.58;100.00
42633;BME280;28261;53.304;-6.284;2023-04-05T05:35:15;101047.09;;;10.58;100.00
42633;BME280;28261;53.304;-6.284;2023-04-05T05:37:20;101054.00;;;10.61;100.00
42633;BME280;28261;53.304;-6.284;2023-04-05T05:39:24;101050.38;;;10.62;100.00
42633;BME280;28261;53.304;-6.284;2023-04-05T05:41:28;101052.09;;;10.63;100.00
42633;BME280;28261;53.304;-6.284;2023-04-05T05:43:32;101050.38;;;10.62;100.00
42633;BME280;28261;53.304;-6.284;2023-04-05T05:45:35;101054.75;;;10.63;100.00
42633;BME280;28261;53.304;-6.284;2023-04-05T05:47:38;101052.00;;;10.64;100.00
42633;BME280;28261;53.304;-6.284;2023-04-05T05:49:43;101059.94;;;10.64;100.00
42633;BME280;28261;53.304;-6.284;2023-04-05T05:51:46;101059.13;;;10.64;100.00
42633;BME280;28261;53.304;-6.284;2023-04-05T05:53:50;101047.56;;;10.65;100.00
42633;BME280;28261;53.304;-6.284;2023-04-05T05:55:53;101055.53;;;10.65;100.00
42633;BME280;28261;53.304;-6.284;2023-04-05T05:57:59;101051.91;;;10.66;100.00
42633;BME280;28261;53.304;-6.284;2023-04-05T06:00:05;101058.06;;;10.66;100.00
42633;BME280;28261;53.304;-6.284;2023-04-05T06:02:13;101058.91;;;10.67;100.00
42633;BME280;28261;53.304;-6.284;2023-04-05T06:04:16;101055.41;;;10.66;100.00
42633;BME280;28261;53.304;-6.284;2023-04-05T06:06:20;101059.78;;;10.68;100.00
42633;BME280;28261;53.304;-6.284;2023-04-05T06:08:25;101059.78;;;10.68;100.00
42633;BME280;28261;53.304;-6.284;2023-04-05T06:10:29;101057.13;;;10.68;100.00
42633;BME280;28261;53.304;-6.284;2023-04-05T06:12:32;101052.66;;;10.68;100.00
42633;BME280;28261;53.304;-6.284;2023-04-05T06:14:37;101047.28;;;10.70;100.00
42633;BME280;28261;53.304;-6.284;2023-04-05T06:16:40;101054.28;;;10.71;100.00
42633;BME280;28261;53.304;-6.284;2023-04-05T06:18:44;101065.63;;;10.73;100.00
42633;BME280;28261;53.304;-6.284;2023-04-05T06:20:47;101054.84;;;10.76;100.00
42633;BME280;28261;53.304;-6.284;2023-04-05T06:22:50;101051.22;;;10.77;100.00
42633;BME280;28261;53.304;-6.284;2023-04-05T06:24:54;101055.59;;;10.78;100.00
42633;BME280;28261;53.304;-6.284;2023-04-05T06:26:57;101051.13;;;10.78;100.00
42633;BME280;28261;53.304;-6.284;2023-04-05T06:29:00;101054.56;;;10.80;100.00
42633;BME280;28261;53.304;-6.284;2023-04-05T06:31:05;101049.25;;;10.80;100.00
42633;BME280;28261;53.304;-6.284;2023-04-05T06:33:11;101041.28;;;10.80;100.00
42633;BME280;28261;53.304;-6.284;2023-04-05T06:35:14;101044.78;;;10.81;100.00
42633;BME280;28261;53.304;-6.284;2023-04-05T06:37:17;101040.34;;;10.81;100.00
42633;BME280;28261;53.304;-6.284;2023-04-05T06:39:21;101046.41;;;10.83;100.00
42633;BME280;28261;53.304;-6.284;2023-04-05T06:41:24;101045.47;;;10.84;100.00
42633;BME280;28261;53.304;-6.284;2023-04-05T06:43:29;101040.88;;;10.87;100.00
42633;BME280;28261;53.304;-6.284;2023-04-05T06:45:33;101051.34;;;10.90;100.00
42633;BME280;28261;53.304;-6.284;2023-04-05T06:47:39;101045.09;;;10.91;100.00
42633;BME280;28261;53.304;-6.284;2023-04-05T06:49:43;101044.88;;;10.94;100.00
42633;BME280;28261;53.304;-6.284;2023-04-05T06:51:46;101051.78;;;10.96;100.00
42633;BME280;28261;53.304;-6.284;2023-04-05T06:53:49;101046.28;;;10.99;100.00
42633;BME280;28261;53.304;-6.284;2023-04-05T06:55:53;101049.59;;;11.03;100.00
42633;BME280;28261;53.304;-6.284;2023-04-05T06:57:57;101038.78;;;11.06;100.00
42633;BME280;28261;53.304;-6.284;2023-04-05T07:00:01;101047.31;;;11.11;100.00
42633;BME280;28261;53.304;-6.284;2023-04-05T07:02:11;101047.84;;;11.16;100.00
42633;BME280;28261;53.304;-6.284;2023-04-05T07:04:16;101038.00;;;11.18;100.00
42633;BME280;28261;53.304;-6.284;2023-04-05T07:06:20;101046.53;;;11.24;100.00
42633;BME280;28261;53.304;-6.284;2023-04-05T07:08:24;101047.25;;;11.26;100.00
42633;BME280;28261;53.304;-6.284;2023-04-05T07:10:29;101041.75;;;11.29;100.00
42633;BME280;28261;53.304;-6.284;2023-04-05T07:12:32;101052.19;;;11.32;100.00
42633;BME280;28261;53.304;-6.284;2023-04-05T07:14:36;101051.22;;;11.33;100.00
42633;BME280;28261;53.304;-6.284;2023-04-05T07:16:40;101046.78;;;11.33;100.00
42633;BME280;28261;53.304;-6.284;2023-04-05T07:18:43;101048.38;;;11.36;100.00
42633;BME280;28261;53.304;-6.284;2023-04-05T07:20:48;101040.41;;;11.36;100.00
42633;BME280;28261;53.304;-6.284;2023-04-05T07:22:52;101036.78;;;11.37;100.00
42633;BME280;28261;53.304;-6.284;2023-04-05T07:24:55;101022.56;;;11.38;100.00
42633;BME280;28261;53.304;-6.284;2023-04-05T07:26:58;101026.00;;;11.40;100.00
42633;BME280;28261;53.304;-6.284;2023-04-05T07:29:04;101032.78;;;11.44;100.00
42633;BME280;28261;53.304;-6.284;2023-04-05T07:31:10;101038.75;;;11.48;100.00
42633;BME280;28261;53.304;-6.284;2023-04-05T07:33:13;101025.34;;;11.49;100.00
42633;BME280;28261;53.304;-6.284;2023-04-05T07:35:17;101028.00;;;11.49;100.00
42633;BME280;28261;53.304;-6.284;2023-04-05T07:37:22;101033.25;;;11.51;100.00
42633;BME280;28261;53.304;-6.284;2023-04-05T07:39:28;101031.44;;;11.51;100.00
42633;BME280;28261;53.304;-6.284;2023-04-05T07:41:31;101033.13;;;11.52;100.00
42633;BME280;28261;53.304;-6.284;2023-04-05T07:43:36;101036.53;;;11.55;100.00
42633;BME280;28261;53.304;-6.284;2023-04-05T07:45:39;101034.75;;;11.55;100.00
42633;BME280;28261;53.304;-6.284;2023-04-05T07:47:43;101026.78;;;11.55;100.00
42633;BME280;28261;53.304;-6.284;2023-04-05T07:49:47;101026.56;;;11.58;100.00
42633;BME280;28261;53.304;-6.284;2023-04-05T07:51:53;101031.66;;;11.61;100.00
42633;BME280;28261;53.304;-6.284;2023-04-05T07:53:58;101027.97;;;11.64;100.00
42633;BME280;28261;53.304;-6.284;2023-04-05T07:56:04;101025.09;;;11.67;100.00
42633;BME280;28261;53.304;-6.284;2023-04-05T07:58:08;101028.41;;;11.71;100.00
42633;BME280;28261;53.304;-6.284;2023-04-05T08:00:13;101026.41;;;11.74;100.00
42633;BME280;28261;53.304;-6.284;2023-04-05T08:02:17;101028.75;;;11.79;100.00
42633;BME280;28261;53.304;-6.284;2023-04-05T08:04:20;101023.09;;;11.83;100.00
42633;BME280;28261;53.304;-6.284;2023-04-05T08:06:26;101031.63;;;11.89;100.00
42633;BME280;28261;53.304;-6.284;2023-04-05T08:08:30;101024.19;;;11.94;100.00
42633;BME280;28261;53.304;-6.284;2023-04-05T08:10:38;101022.13;;;11.99;100.00
42633;BME280;28261;53.304;-6.284;2023-04-05T08:12:42;101025.22;;;12.06;100.00
42633;BME280;28261;53.304;-6.284;2023-04-05T08:14:46;101026.69;;;12.10;100.00
42633;BME280;28261;53.304;-6.284;2023-04-05T08:16:50;101032.53;;;12.15;100.00
42633;BME280;28261;53.304;-6.284;2023-04-05T08:18:53;101020.66;;;12.21;100.00
42633;BME280;28261;53.304;-6.284;2023-04-05T08:20:57;101023.81;;;12.26;100.00
42633;BME280;28261;53.304;-6.284;2023-04-05T08:23:00;101026.06;;;12.32;100.00
42633;BME280;28261;53.304;-6.284;2023-04-05T08:25:04;101022.84;;;12.40;100.00
42633;BME280;28261;53.304;-6.284;2023-04-05T08:27:09;101012.63;;;12.46;100.00
42633;BME280;28261;53.304;-6.284;2023-04-05T08:29:12;101017.41;;;12.54;100.00
42633;BME280;28261;53.304;-6.284;2023-04-05T08:31:17;101019.66;;;12.60;100.00
42633;BME280;28261;53.304;-6.284;2023-04-05T08:33:23;101021.84;;;12.66;100.00
42633;BME280;28261;53.304;-6.284;2023-04-05T08:35:29;101022.50;;;12.70;100.00
42633;BME280;28261;53.304;-6.284;2023-04-05T08:37:34;101017.91;;;12.72;100.00
42633;BME280;28261;53.304;-6.284;2023-04-05T08:39:37;101020.78;;;12.69;100.00
42633;BME280;28261;53.304;-6.284;2023-04-05T08:41:45;101015.81;;;12.64;100.00
42633;BME280;28261;53.304;-6.284;2023-04-05T08:43:59;101018.91;;;12.58;100.00
42633;BME280;28261;53.304;-6.284;2023-04-05T08:46:08;101027.09;;;12.55;100.00
42633;BME280;28261;53.304;-6.284;2023-04-05T08:48:11;101016.56;;;12.53;100.00
42633;BME280;28261;53.304;-6.284;2023-04-05T08:50:15;101021.97;;;12.52;100.00
42633;BME280;28261;53.304;-6.284;2023-04-05T08:52:19;101014.88;;;12.52;100.00
42633;BME280;28261;53.304;-6.284;2023-04-05T08:54:22;101019.13;;;12.55;100.00
42633;BME280;28261;53.304;-6.284;2023-04-05T08:56:30;101022.41;;;12.59;100.00
42633;BME280;28261;53.304;-6.284;2023-04-05T08:58:34;101017.84;;;12.61;100.00
42633;BME280;28261;53.304;-6.284;2023-04-05T09:00:42;101014.41;;;12.59;100.00
42633;BME280;28261;53.304;-6.284;2023-04-05T09:02:47;101014.34;;;12.60;100.00
42633;BME280;28261;53.304;-6.284;2023-04-05T09:04:52;101014.22;;;12.62;100.00
42633;BME280;28261;53.304;-6.284;2023-04-05T09:06:57;101017.84;;;12.61;100.00
42633;BME280;28261;53.304;-6.284;2023-04-05T09:09:05;101012.50;;;12.61;100.00
42633;BME280;28261;53.304;-6.284;2023-04-05T09:11:10;101022.09;;;12.63;100.00
42633;BME280;28261;53.304;-6.284;2023-04-05T09:13:14;101016.66;;;12.65;100.00
42633;BME280;28261;53.304;-6.284;2023-04-05T09:15:18;101018.25;;;12.67;100.00
42633;BME280;28261;53.304;-6.284;2023-04-05T09:17:27;101018.03;;;12.70;100.00
42633;BME280;28261;53.304;-6.284;2023-04-05T09:19:33;101013.34;;;12.74;100.00
42633;BME280;28261;53.304;-6.284;2023-04-05T09:21:59;101004.19;;;12.78;100.00
42633;BME280;28261;53.304;-6.284;2023-04-05T09:24:06;101006.38;;;12.84;100.00
42633;BME280;28261;53.304;-6.284;2023-04-05T09:26:19;101004.88;;;12.93;100.00
42633;BME280;28261;53.304;-6.284;2023-04-05T09:28:43;101005.91;;;13.03;100.00
42633;BME280;28261;53.304;-6.284;2023-04-05T09:30:47;101005.13;;;13.14;100.00
42633;BME280;28261;53.304;-6.284;2023-04-05T09:32:52;100991.53;;;13.30;100.00
42633;BME280;28261;53.304;-6.284;2023-04-05T09:34:57;100998.28;;;13.47;100.00
42633;BME280;28261;53.304;-6.284;2023-04-05T09:37:11;100999.69;;;13.64;100.00
42633;BME280;28261;53.304;-6.284;2023-04-05T09:39:17;100996.56;;;13.82;100.00
42633;BME280;28261;53.304;-6.284;2023-04-05T09:41:24;101000.00;;;13.95;99.09
42633;BME280;28261;53.304;-6.284;2023-04-05T09:43:38;101000.13;;;14.05;98.52
42633;BME280;28261;53.304;-6.284;2023-04-05T09:45:42;100996.03;;;14.12;97.65
42633;BME280;28261;53.304;-6.284;2023-04-05T09:47:54;101000.38;;;14.13;96.54
42633;BME280;28261;53.304;-6.284;2023-04-05T09:49:59;101005.00;;;14.11;96.44
42633;BME280;28261;53.304;-6.284;2023-04-05T09:52:03;101007.16;;;14.06;95.97
42633;BME280;28261;53.304;-6.284;2023-04-05T09:54:07;101004.25;;;13.98;95.77
42633;BME280;28261;53.304;-6.284;2023-04-05T09:56:13;101000.59;;;13.87;95.63
42633;BME280;28261;53.304;-6.284;2023-04-05T09:58:18;101000.22;;;13.81;95.77
42633;BME280;28261;53.304;-6.284;2023-04-05T10:00:23;100999.72;;;13.76;96.49
42633;BME280;28261;53.304;-6.284;2023-04-05T10:02:35;100994.25;;;13.77;96.08
42633;BME280;28261;53.304;-6.284;2023-04-05T10:04:42;101000.72;;;13.86;96.51
42633;BME280;28261;53.304;-6.284;2023-04-05T10:06:46;100994.66;;;13.95;95.97
42633;BME280;28261;53.304;-6.284;2023-04-05T10:08:50;101001.84;;;14.06;95.88
42633;BME280;28261;53.304;-6.284;2023-04-05T10:10:55;100999.28;;;14.16;95.09
42633;BME280;28261;53.304;-6.284;2023-04-05T10:13:04;100999.31;;;14.27;94.55
42633;BME280;28261;53.304;-6.284;2023-04-05T10:15:09;100995.19;;;14.34;94.01
42633;BME280;28261;53.304;-6.284;2023-04-05T10:17:20;100997.03;;;14.45;93.43
42633;BME280;28261;53.304;-6.284;2023-04-05T10:19:29;100994.00;;;14.61;93.36
42633;BME280;28261;53.304;-6.284;2023-04-05T10:21:42;100991.31;;;14.84;92.43
42633;BME280;28261;53.304;-6.284;2023-04-05T10:26:14;100988.28;;;15.21;90.64
42633;BME280;28261;53.304;-6.284;2023-04-05T10:28:25;100986.44;;;15.33;90.05
42633;BME280;28261;53.304;-6.284;2023-04-05T10:30:35;100979.34;;;15.43;88.82
42633;BME280;28261;53.304;-6.284;2023-04-05T10:32:47;100985.69;;;15.42;87.75
42633;BME280;28261;53.304;-6.284;2023-04-05T10:34:59;100991.84;;;15.43;87.31
42633;BME280;28261;53.304;-6.284;2023-04-05T10:37:16;100986.84;;;15.49;87.45
42633;BME280;28261;53.304;-6.284;2023-04-05T10:39:27;100991.44;;;15.59;86.16
42633;BME280;28261;53.304;-6.284;2023-04-05T10:41:34;100988.28;;;15.53;85.73
42633;BME280;28261;53.304;-6.284;2023-04-05T10:43:40;100990.25;;;15.51;85.74
42633;BME280;28261;53.304;-6.284;2023-04-05T10:45:47;100977.25;;;15.47;86.12
42633;BME280;28261;53.304;-6.284;2023-04-05T10:47:54;100980.06;;;15.45;85.61
42633;BME280;28261;53.304;-6.284;2023-04-05T10:50:03;100993.69;;;15.42;84.78
42633;BME280;28261;53.304;-6.284;2023-04-05T10:52:09;100986.69;;;15.30;84.84